createdAt,value
2018-12-12T00:00:32.433Z,95775.00
2018-12-12T00:03:01.711Z,95766.00
2018-12-12T00:05:30.811Z,95773.00
2018-12-12T00:07:59.928Z,95762.00
2018-12-12T00:10:29.008Z,95769.00
2018-12-12T00:12:58.124Z,95767.00
2018-12-12T00:15:27.648Z,95776.00
2018-12-12T00:17:58.954Z,95774.00
2018-12-12T00:20:28.275Z,95786.00
2018-12-12T00:22:57.408Z,95782.00
2018-12-12T00:28:07.159Z,95791.00
2018-12-12T00:30:36.151Z,95805.00
2018-12-12T00:33:05.420Z,95794.00
2018-12-12T00:35:35.722Z,95804.00
2018-12-12T00:38:05.058Z,95788.00
2018-12-12T00:43:13.403Z,95795.00
2018-12-12T00:45:42.532Z,95802.00
2018-12-12T00:50:49.819Z,95791.00
2018-12-12T00:53:18.940Z,95789.00
2018-12-12T00:55:48.029Z,95782.00
2018-12-12T00:58:17.775Z,95786.00
2018-12-12T01:00:46.907Z,95779.00
2018-12-12T01:03:15.960Z,95779.00
2018-12-12T01:05:45.124Z,95784.00
2018-12-12T01:08:14.276Z,95791.00
2018-12-12T01:10:43.662Z,95789.00
2018-12-12T01:13:12.779Z,95796.00
2018-12-12T01:15:41.932Z,95803.00
2018-12-12T01:20:50.162Z,95800.00
2018-12-12T01:25:58.116Z,95808.00
2018-12-12T01:28:28.175Z,95814.00
2018-12-12T01:30:58.218Z,95797.00
2018-12-12T01:33:28.180Z,95793.00
2018-12-12T01:35:58.255Z,95802.00
2018-12-12T01:38:28.352Z,95797.00
2018-12-12T01:40:58.358Z,95793.00
2018-12-12T01:43:29.450Z,95801.00
2018-12-12T01:45:58.640Z,95795.00
2018-12-12T01:48:28.328Z,95799.00
2018-12-12T01:53:37.017Z,95806.00
2018-12-12T01:58:45.171Z,95793.00
2018-12-12T02:01:14.245Z,95785.00
2018-12-12T02:03:43.452Z,95788.00
2018-12-12T02:06:12.654Z,95784.00
2018-12-12T02:11:22.509Z,95797.00
2018-12-12T02:13:51.688Z,95802.00
2018-12-12T02:16:20.941Z,95786.00
2018-12-12T02:18:50.221Z,95789.00
2018-12-12T02:21:19.388Z,95787.00
2018-12-12T02:23:48.583Z,95790.00
2018-12-12T02:26:17.996Z,95779.00
2018-12-12T02:28:47.076Z,95782.00
2018-12-12T02:31:16.304Z,95779.00
2018-12-12T02:33:46.495Z,95788.00
2018-12-12T02:36:15.679Z,95787.00
2018-12-12T02:38:44.895Z,95780.00
2018-12-12T02:41:14.109Z,95774.00
2018-12-12T02:43:43.262Z,95765.00
2018-12-12T02:46:14.166Z,95784.00
2018-12-12T02:48:43.316Z,95770.00
2018-12-12T02:51:12.440Z,95775.00
2018-12-12T02:56:19.765Z,95773.00
2018-12-12T02:58:49.000Z,95785.00
2018-12-12T03:03:57.667Z,95781.00
2018-12-12T03:06:27.259Z,95772.00
2018-12-12T03:08:56.476Z,95775.00
2018-12-12T03:11:26.228Z,95776.00
2018-12-12T03:13:55.336Z,95775.00
2018-12-12T03:16:24.552Z,95757.00
2018-12-12T03:21:33.612Z,95769.00
2018-12-12T03:24:02.823Z,95778.00
2018-12-12T03:26:32.280Z,95774.00
2018-12-12T03:29:01.484Z,95787.00
2018-12-12T03:31:30.678Z,95779.00
2018-12-12T03:33:59.741Z,95782.00
2018-12-12T03:36:29.439Z,95788.00
2018-12-12T03:38:59.581Z,95780.00
2018-12-12T03:41:29.592Z,95781.00
2018-12-12T03:43:59.518Z,95785.00
2018-12-12T03:46:29.692Z,95780.00
2018-12-12T03:51:42.389Z,95776.00
2018-12-12T03:54:11.500Z,95757.00
2018-12-12T03:59:19.164Z,95760.00
2018-12-12T04:01:48.340Z,95765.00
2018-12-12T04:04:18.015Z,95762.00
2018-12-12T04:06:47.248Z,95765.00
2018-12-12T04:09:16.340Z,95770.00
2018-12-12T04:14:24.895Z,95766.00
2018-12-12T04:16:54.068Z,95769.00
2018-12-12T04:19:23.440Z,95770.00
2018-12-12T04:21:52.674Z,95763.00
2018-12-12T04:27:03.346Z,95761.00
2018-12-12T04:29:32.548Z,95770.00
2018-12-12T04:32:01.663Z,95768.00
2018-12-12T04:34:30.863Z,95760.00
2018-12-12T04:36:59.967Z,95762.00
2018-12-12T04:39:30.010Z,95765.00
2018-12-12T04:44:39.489Z,95775.00
2018-12-12T04:47:08.597Z,95767.00
2018-12-12T04:52:16.015Z,95768.00
2018-12-12T04:54:45.137Z,95772.00
2018-12-12T04:57:14.307Z,95759.00
2018-12-12T04:59:43.471Z,95775.00
2018-12-12T05:04:56.648Z,95772.00
2018-12-12T05:07:25.864Z,95774.00
2018-12-12T05:09:54.991Z,95784.00
2018-12-12T05:12:24.068Z,95777.00
2018-12-12T05:17:32.382Z,95781.00
2018-12-12T05:20:01.584Z,95776.00
2018-12-12T05:22:30.728Z,95778.00
2018-12-12T05:25:00.331Z,95778.00
2018-12-12T05:27:30.416Z,95778.00
2018-12-12T05:30:00.284Z,95779.00
2018-12-12T05:32:30.292Z,95773.00
2018-12-12T05:35:00.401Z,95772.00
2018-12-12T05:37:30.373Z,95787.00
2018-12-12T05:40:00.344Z,95788.00
2018-12-12T05:42:30.748Z,95782.00
2018-12-12T05:45:00.571Z,95781.00
2018-12-12T05:47:32.059Z,95792.00
2018-12-12T05:50:01.176Z,95789.00
2018-12-12T05:55:08.258Z,95783.00
2018-12-12T05:57:37.333Z,95788.00
2018-12-12T06:00:08.988Z,95776.00
2018-12-12T06:02:38.095Z,95783.00
2018-12-12T06:07:46.434Z,95783.00
2018-12-12T06:10:15.518Z,95783.00
2018-12-12T06:12:46.083Z,95783.00
2018-12-12T06:15:15.333Z,95787.00
2018-12-12T06:17:44.580Z,95790.00
2018-12-12T06:20:13.888Z,95787.00
2018-12-12T06:25:22.542Z,95797.00
2018-12-12T06:27:51.808Z,95786.00
2018-12-12T06:30:20.979Z,95797.00
2018-12-12T06:35:29.301Z,95803.00
2018-12-12T06:37:58.762Z,95795.00
2018-12-12T06:40:27.915Z,95790.00
2018-12-12T06:42:56.910Z,95794.00
2018-12-12T06:45:26.047Z,95809.00
2018-12-12T06:50:34.773Z,95812.00
2018-12-12T06:53:03.881Z,95802.00
2018-12-12T06:55:32.991Z,95802.00
2018-12-12T06:58:02.102Z,95809.00
2018-12-12T07:00:31.178Z,95805.00
2018-12-12T07:03:01.302Z,95819.00
2018-12-12T07:05:31.344Z,95813.00
2018-12-12T07:08:01.265Z,95814.00
2018-12-12T07:15:29.225Z,95806.00
2018-12-12T07:17:58.321Z,95812.00
2018-12-12T07:20:27.356Z,95810.00
2018-12-12T07:22:56.530Z,95804.00
2018-12-12T07:25:25.708Z,95797.00
2018-12-12T07:30:35.062Z,95814.00
2018-12-12T07:33:04.280Z,95803.00
2018-12-12T07:35:33.452Z,95816.00
2018-12-12T07:38:02.643Z,95808.00
2018-12-12T07:40:31.712Z,95811.00
2018-12-12T07:43:01.691Z,95809.00
2018-12-12T07:45:31.876Z,95805.00
2018-12-12T07:48:01.721Z,95818.00
2018-12-12T07:53:10.945Z,95814.00
2018-12-12T07:55:40.065Z,95813.00
2018-12-12T07:58:09.127Z,95808.00
2018-12-12T08:00:38.381Z,95816.00
2018-12-12T08:03:07.623Z,95815.00
2018-12-12T08:05:36.816Z,95803.00
2018-12-12T08:08:07.291Z,95815.00
2018-12-12T08:10:36.364Z,95827.00
2018-12-12T08:13:05.580Z,95817.00
2018-12-12T08:15:36.131Z,95806.00
2018-12-12T08:20:44.346Z,95823.00
2018-12-12T08:25:53.660Z,95829.00
2018-12-12T08:28:22.824Z,95818.00
2018-12-12T08:30:51.995Z,95827.00
2018-12-12T08:33:22.244Z,95842.00
2018-12-12T08:35:51.388Z,95831.00
2018-12-12T08:40:59.593Z,95833.00
2018-12-12T08:43:28.748Z,95828.00
2018-12-12T08:45:57.920Z,95822.00
2018-12-12T08:51:04.919Z,95820.00
2018-12-12T08:56:13.071Z,95824.00
2018-12-12T09:01:20.837Z,95821.00
2018-12-12T09:06:29.178Z,95822.00
2018-12-12T09:08:58.320Z,95828.00
2018-12-12T09:11:27.461Z,95829.00
2018-12-12T09:13:56.616Z,95816.00
2018-12-12T09:16:25.944Z,95823.00
2018-12-12T09:18:55.127Z,95826.00
2018-12-12T09:21:24.304Z,95833.00
2018-12-12T09:26:32.511Z,95834.00
2018-12-12T09:29:02.555Z,95836.00
2018-12-12T09:31:32.570Z,95834.00
2018-12-12T09:36:41.666Z,95818.00
2018-12-12T09:39:10.830Z,95822.00
2018-12-12T09:41:40.032Z,95826.00
2018-12-12T09:44:09.281Z,95808.00
2018-12-12T09:46:38.380Z,95816.00
2018-12-12T09:49:07.624Z,95825.00
2018-12-12T09:54:15.204Z,95822.00
2018-12-12T09:59:23.364Z,95813.00
2018-12-12T10:01:52.484Z,95821.00
2018-12-12T10:04:21.632Z,95813.00
2018-12-12T10:06:50.828Z,95806.00
2018-12-12T10:09:19.951Z,95820.00
2018-12-12T10:14:27.731Z,95809.00
2018-12-12T10:16:56.952Z,95813.00
2018-12-12T10:19:26.111Z,95824.00
2018-12-12T10:21:55.607Z,95817.00
2018-12-12T10:24:25.720Z,95808.00
2018-12-12T10:29:33.988Z,95814.00
2018-12-12T10:32:03.304Z,95804.00
2018-12-12T10:34:33.394Z,95802.00
2018-12-12T10:37:03.298Z,95805.00
2018-12-12T10:39:33.388Z,95785.00
2018-12-12T10:42:03.518Z,95798.00
2018-12-12T10:44:33.520Z,95803.00
2018-12-12T10:47:03.451Z,95786.00
2018-12-12T10:52:11.209Z,95781.00
2018-12-12T10:54:40.436Z,95796.00
2018-12-12T10:59:48.292Z,95789.00
2018-12-12T11:02:23.423Z,95787.00
2018-12-12T11:04:52.600Z,95785.00
2018-12-12T11:07:21.692Z,95782.00
2018-12-12T11:12:29.364Z,95777.00
2018-12-12T11:14:58.885Z,95782.00
2018-12-12T11:17:28.054Z,95777.00
2018-12-12T11:19:57.195Z,95769.00
2018-12-12T11:25:05.410Z,95780.00
2018-12-12T11:27:34.731Z,95777.00
2018-12-12T11:32:43.765Z,95777.00
2018-12-12T11:37:52.143Z,95775.00
2018-12-12T11:40:21.247Z,95770.00
2018-12-12T11:42:50.402Z,95761.00
2018-12-12T11:45:19.596Z,95772.00
2018-12-12T11:47:48.733Z,95762.00
2018-12-12T11:52:57.154Z,95745.00
2018-12-12T11:55:26.264Z,95755.00
2018-12-12T11:57:55.329Z,95744.00
2018-12-12T12:00:24.620Z,95769.00
2018-12-12T12:02:53.830Z,95760.00
2018-12-12T12:05:22.962Z,95759.00
2018-12-12T12:07:52.135Z,95749.00
2018-12-12T12:10:21.404Z,95745.00
2018-12-12T12:12:50.580Z,95750.00
2018-12-12T12:15:19.671Z,95747.00
2018-12-12T12:17:48.795Z,95746.00
2018-12-12T12:22:57.520Z,95743.00
2018-12-12T12:25:26.676Z,95746.00
2018-12-12T12:27:55.731Z,95734.00
2018-12-12T12:33:04.116Z,95741.00
2018-12-12T12:38:13.447Z,95756.00
2018-12-12T12:40:42.547Z,95747.00
2018-12-12T12:43:11.612Z,95740.00
2018-12-12T12:48:19.958Z,95734.00
2018-12-12T12:53:28.023Z,95714.00
2018-12-12T12:55:57.084Z,95732.00
2018-12-12T12:58:26.204Z,95720.00
2018-12-12T13:03:34.487Z,95726.00
2018-12-12T13:06:04.584Z,95728.00
2018-12-12T13:08:34.700Z,95728.00
2018-12-12T13:11:05.935Z,95729.00
2018-12-12T13:13:35.165Z,95732.00
2018-12-12T13:16:04.908Z,95718.00
2018-12-12T13:18:34.687Z,95723.00
2018-12-12T13:21:04.934Z,95715.00
2018-12-12T13:23:34.683Z,95715.00
2018-12-12T13:26:04.859Z,95719.00
2018-12-12T13:28:34.876Z,95721.00
2018-12-12T13:31:05.035Z,95722.00
2018-12-12T13:36:14.698Z,95705.00
2018-12-12T13:38:43.875Z,95701.00
2018-12-12T13:41:13.008Z,95703.00
2018-12-12T13:43:42.195Z,95707.00
2018-12-12T13:46:11.410Z,95711.00
2018-12-12T13:51:19.727Z,95695.00
2018-12-12T13:53:48.820Z,95703.00
2018-12-12T13:56:17.894Z,95694.00
2018-12-12T13:58:47.107Z,95692.00
2018-12-12T14:01:16.259Z,95700.00
2018-12-12T14:03:45.374Z,95695.00
2018-12-12T14:06:14.384Z,95682.00
2018-12-12T14:08:43.464Z,95690.00
2018-12-12T14:11:12.588Z,95692.00
2018-12-12T14:13:42.912Z,95685.00
2018-12-12T14:16:12.101Z,95689.00
2018-12-12T14:18:41.239Z,95687.00
2018-12-12T14:21:11.443Z,95700.00
2018-12-12T14:23:40.652Z,95690.00
2018-12-12T14:26:09.807Z,95687.00
2018-12-12T14:28:38.829Z,95674.00
2018-12-12T14:31:08.076Z,95683.00
2018-12-12T14:33:37.256Z,95695.00
2018-12-12T14:36:06.424Z,95679.00
2018-12-12T14:38:35.591Z,95688.00
2018-12-12T14:41:05.758Z,95675.00
2018-12-12T14:46:14.760Z,95676.00
2018-12-12T14:51:22.038Z,95675.00
2018-12-12T14:53:51.285Z,95673.00
2018-12-12T14:56:20.427Z,95660.00
2018-12-12T14:58:50.732Z,95666.00
2018-12-12T15:01:19.904Z,95672.00
2018-12-12T15:03:49.205Z,95674.00
2018-12-12T15:06:18.312Z,95669.00
2018-12-12T15:08:47.444Z,95673.00
2018-12-12T15:11:17.656Z,95668.00
2018-12-12T15:13:46.844Z,95672.00
2018-12-12T15:16:16.088Z,95662.00
2018-12-12T15:18:45.298Z,95656.00
2018-12-12T15:21:14.532Z,95658.00
2018-12-12T15:23:43.622Z,95664.00
2018-12-12T15:28:52.007Z,95668.00
2018-12-12T15:31:21.272Z,95652.00
2018-12-12T15:33:50.468Z,95658.00
2018-12-12T15:36:19.708Z,95659.00
2018-12-12T15:38:48.815Z,95656.00
2018-12-12T15:41:17.996Z,95654.00
2018-12-12T15:43:47.143Z,95655.00
2018-12-12T15:46:16.587Z,95665.00
2018-12-12T15:48:45.712Z,95653.00
2018-12-12T15:51:14.724Z,95654.00
2018-12-12T15:56:21.482Z,95655.00
2018-12-12T15:58:50.740Z,95647.00
2018-12-12T16:01:19.937Z,95663.00
2018-12-12T16:03:49.075Z,95652.00
2018-12-12T16:06:18.196Z,95655.00
2018-12-12T16:08:47.259Z,95655.00
2018-12-12T16:11:16.356Z,95661.00
2018-12-12T16:13:45.512Z,95651.00
2018-12-12T16:16:14.637Z,95655.00
2018-12-12T16:18:43.780Z,95656.00
2018-12-12T16:21:12.928Z,95660.00
2018-12-12T16:26:21.192Z,95655.00
2018-12-12T16:28:50.330Z,95661.00
2018-12-12T16:33:58.072Z,95647.00
2018-12-12T16:36:27.843Z,95650.00
2018-12-12T16:38:56.979Z,95652.00
2018-12-12T16:41:26.316Z,95658.00
2018-12-12T16:43:55.495Z,95650.00
2018-12-12T16:46:24.844Z,95655.00
2018-12-12T16:51:32.208Z,95669.00
2018-12-12T16:54:01.361Z,95662.00
2018-12-12T16:59:09.596Z,95656.00
2018-12-12T17:04:18.024Z,95658.00
2018-12-12T17:09:26.461Z,95649.00
2018-12-12T17:11:55.660Z,95654.00
2018-12-12T17:17:05.037Z,95653.00
2018-12-12T17:22:13.316Z,95643.00
2018-12-12T17:24:42.616Z,95637.00
2018-12-12T17:27:11.734Z,95641.00
2018-12-12T17:29:40.956Z,95648.00
2018-12-12T17:32:10.233Z,95649.00
2018-12-12T17:34:39.379Z,95645.00
2018-12-12T17:37:09.455Z,95652.00
2018-12-12T17:39:39.370Z,95646.00
2018-12-12T17:42:09.556Z,95645.00
2018-12-12T17:44:39.369Z,95640.00
2018-12-12T17:47:09.388Z,95643.00
2018-12-12T17:49:39.507Z,95638.00
2018-12-12T17:52:09.537Z,95627.00
2018-12-12T17:57:18.603Z,95638.00
2018-12-12T17:59:47.724Z,95647.00
2018-12-12T18:02:18.067Z,95642.00
2018-12-12T18:04:47.236Z,95645.00
2018-12-12T18:07:16.436Z,95643.00
2018-12-12T18:09:45.617Z,95647.00
2018-12-12T18:12:15.825Z,95643.00
2018-12-12T18:14:44.993Z,95650.00
2018-12-12T18:17:14.176Z,95650.00
2018-12-12T18:19:43.408Z,95639.00
2018-12-12T18:22:12.510Z,95663.00
2018-12-12T18:24:41.578Z,95656.00
2018-12-12T18:27:10.749Z,95644.00
2018-12-12T18:29:39.837Z,95642.00
2018-12-12T18:32:09.909Z,95651.00
2018-12-12T18:34:39.896Z,95644.00
2018-12-12T18:37:09.768Z,95642.00
2018-12-12T18:39:40.069Z,95635.00
2018-12-12T18:42:09.888Z,95655.00
2018-12-12T18:44:39.980Z,95647.00
2018-12-12T18:47:10.022Z,95641.00
2018-12-12T18:49:40.036Z,95629.00
2018-12-12T18:54:48.260Z,95646.00
2018-12-12T18:57:18.003Z,95638.00
2018-12-12T18:59:47.139Z,95637.00
2018-12-12T19:02:16.259Z,95646.00
2018-12-12T19:04:45.411Z,95634.00
2018-12-12T19:07:14.666Z,95625.00
2018-12-12T19:09:43.861Z,95627.00
2018-12-12T19:12:13.119Z,95625.00
2018-12-12T19:14:47.653Z,95627.00
2018-12-12T19:19:57.308Z,95621.00
2018-12-12T19:22:26.697Z,95623.00
2018-12-12T19:24:56.937Z,95627.00
2018-12-12T19:27:26.057Z,95628.00
2018-12-12T19:29:55.145Z,95630.00
2018-12-12T19:32:24.188Z,95622.00
2018-12-12T19:34:53.204Z,95616.00
2018-12-12T19:37:23.326Z,95616.00
2018-12-12T19:39:52.400Z,95616.00
2018-12-12T19:42:21.572Z,95625.00
2018-12-12T19:47:29.740Z,95620.00
2018-12-12T19:52:37.495Z,95629.00
2018-12-12T19:55:08.446Z,95616.00
2018-12-12T19:57:37.524Z,95628.00
2018-12-12T20:00:07.425Z,95620.00
2018-12-12T20:02:37.673Z,95598.00
2018-12-12T20:05:07.199Z,95604.00
2018-12-12T20:07:36.373Z,95609.00
2018-12-12T20:12:45.063Z,95605.00
2018-12-12T20:18:05.524Z,95605.00
2018-12-12T20:20:34.687Z,95596.00
2018-12-12T20:23:03.841Z,95606.00
2018-12-12T20:25:33.062Z,95605.00
2018-12-12T20:28:02.212Z,95612.00
2018-12-12T20:30:35.306Z,95603.00
2018-12-12T20:33:02.372Z,95604.00
2018-12-12T20:35:31.777Z,95587.00
2018-12-12T20:38:00.911Z,95586.00
2018-12-12T20:40:30.080Z,95589.00
2018-12-12T20:45:38.203Z,95582.00
2018-12-12T20:48:07.360Z,95585.00
2018-12-12T20:53:14.528Z,95583.00
2018-12-12T20:55:43.630Z,95580.00
2018-12-12T20:58:12.783Z,95578.00
2018-12-12T21:00:41.980Z,95580.00
2018-12-12T21:03:11.475Z,95581.00
2018-12-12T21:05:41.414Z,95574.00
2018-12-12T21:08:11.551Z,95579.00
2018-12-12T21:10:41.569Z,95568.00
2018-12-12T21:13:11.580Z,95566.00
2018-12-12T21:15:45.748Z,95555.00
2018-12-12T21:18:14.969Z,95564.00
2018-12-12T21:20:44.161Z,95558.00
2018-12-12T21:23:13.323Z,95556.00
2018-12-12T21:28:22.009Z,95564.00
2018-12-12T21:30:51.236Z,95556.00
2018-12-12T21:33:20.348Z,95559.00
2018-12-12T21:35:49.503Z,95548.00
2018-12-12T21:40:57.749Z,95540.00
2018-12-12T21:43:26.920Z,95552.00
2018-12-12T21:45:55.956Z,95541.00
2018-12-12T21:48:25.848Z,95545.00
2018-12-12T21:50:55.008Z,95547.00
2018-12-12T21:53:24.114Z,95541.00
2018-12-12T21:55:55.092Z,95536.00
2018-12-12T21:58:24.194Z,95524.00
2018-12-12T22:00:53.320Z,95539.00
2018-12-12T22:03:22.429Z,95542.00
2018-12-12T22:05:51.610Z,95534.00
2018-12-12T22:10:59.861Z,95534.00
2018-12-12T22:13:30.818Z,95534.00
2018-12-12T22:15:59.900Z,95531.00
2018-12-12T22:18:29.187Z,95527.00
2018-12-12T22:20:59.545Z,95516.00
2018-12-12T22:23:28.677Z,95514.00
2018-12-12T22:25:57.808Z,95532.00
2018-12-12T22:28:27.059Z,95519.00
2018-12-12T22:30:56.220Z,95527.00
2018-12-12T22:33:25.327Z,95520.00
2018-12-12T22:35:54.462Z,95519.00
2018-12-12T22:38:23.597Z,95523.00
2018-12-12T22:40:52.747Z,95518.00
2018-12-12T22:43:21.840Z,95523.00
2018-12-12T22:45:51.424Z,95513.00
2018-12-12T22:48:20.838Z,95516.00
2018-12-12T22:50:50.223Z,95526.00
2018-12-12T22:53:19.415Z,95517.00
2018-12-12T22:55:48.544Z,95520.00
2018-12-12T22:58:18.132Z,95517.00
2018-12-12T23:04:33.191Z,95509.00
2018-12-12T23:07:02.320Z,95512.00
2018-12-12T23:09:31.474Z,95504.00
2018-12-12T23:12:00.701Z,95502.00
2018-12-12T23:14:29.755Z,95487.00
2018-12-12T23:19:38.171Z,95494.00
2018-12-12T23:22:07.431Z,95495.00
2018-12-12T23:24:36.547Z,95505.00
2018-12-12T23:27:05.743Z,95487.00
2018-12-12T23:29:34.876Z,95492.00
2018-12-12T23:32:04.094Z,95485.00
2018-12-12T23:34:33.169Z,95479.00
2018-12-12T23:39:41.463Z,95492.00
2018-12-12T23:42:10.624Z,95465.00
2018-12-12T23:44:39.731Z,95476.00
2018-12-12T23:47:08.860Z,95464.00
2018-12-12T23:52:16.181Z,95467.00
2018-12-12T23:54:45.263Z,95468.00
2018-12-12T23:57:14.431Z,95458.00
